world map with MNJU marked

MNJU - Location

This information may not be accurate or current and is not valid for navigation or flight planning. No warranty of fitness for any purpose is made or implied.

flag of Nicaragua

Donate via PayPal

Additional information is available on the NEW Great Circle Mapper

Location
City:  Juigalpa, Chontales, Nicaragua
ICAO:MNJU

Details
Latitude:12°06'N (12.100)
Longitude:85°22'W (-85.367)

Time
Timezone:UTC+28:08 (DST+30:08)
Local Time:

Weather
METAR:MNJU  182300Z 09004KT 9999 SCT020 29/21 Q1011
TAF:MNJU  (expired)

Related Locations
Nearby:
Farthest:CCK: 12301 mi / 19796 km
West Island (Pulau Panjang) [Cocos (Keeling) Islands], CC

Find:

   beyond  
but within

Other Information
Maps:
Sources:

  


 


Great Circle Mapper   Great Circle Mapper
Great Circle Mapper FAQ   Great Circle Mapper FAQ
  Karl's Home Page
KLSē   KLSē Home
   GC on Facebook
Airlines of the World   Airlines of the World
Donate via PayPal


Copyright © 2004-2019, Karl L. Swartz. All rights reserved.
All trademarks mentioned herein belong to their respective owners.

Please see credits for attribution and copyright information.

Karl Swartz <karl@kls2.com>
  Powered by FreeBSD
Valid HTML 4.01!
Labeled with ICRA
hCard Microformat
Geo Microformat